WI42 weather

Pine Grove Airport
Rhinelander, Wisconsin, United States

Public forecast

Using degrees Fahrenheit for public forecast. Weather courtesy of forecast.io.

Closest aviation weather report (METAR) to Pine Grove Airport

Closest report is Rhinelander Oneida County Airport, 3.0 nm (5.6 km) ESE. Retrieved 2019/10/16 16:41 UTC (0 seconds ago):

KRHI 161641Z AUTO 32010G16KT 10SM BKN024 BKN032 OVC040 06/01 A2997 RMK AO2 T00610011

Closest aviation forecast (TAF) to Pine Grove Airport

Closest forecast is Rhinelander Oneida County Airport, 3.0 nm (5.6 km) ESE. Retrieved 2019/10/16 12:36 UTC (4 hours ago):

TAF KRHI 161134Z 1612/1712 34011G21KT P6SM OVC013 FM161900 34010G18KT P6SM OVC022 FM162300 34006KT P6SM BKN024 FM170400 32004KT P6SM BKN030 FM170900 31003KT P6SM BKN015